Time;durP1;ratioP1;P1;durP2;ratioP2;P2;SDS_P1;SDS_P2;PMS_P1;PMS_P2;Temp;Humidity;BMP_temperature;BMP_pressure;BME280_temperature;BME280_humidity;BME280_pressure;Samples;Min_cycle;Max_cycle;Signal;HPM_P1;HPM_P2
2023/03/14 00:01:06;;;;;;;5.88;1.30;;;;;;;11.50;73.41;98762.75;4976528;28;20042;-65
2023/03/14 00:03:32;;;;;;;4.63;1.10;;;;;;;11.41;74.11;98765.72;4979424;28;20034;-65
2023/03/14 00:06:02;;;;;;;5.90;1.40;;;;;;;11.38;74.01;98765.84;4973852;28;20675;-65
2023/03/14 00:08:27;;;;;;;8.40;1.40;;;;;;;11.33;74.45;98768.66;4973900;28;20019;-66
2023/03/14 00:10:53;;;;;;;5.60;1.40;;;;;;;11.35;74.05;98772.00;4979403;28;20042;-65
2023/03/14 00:13:18;;;;;;;6.85;1.75;;;;;;;11.30;74.50;98790.31;4967034;28;20042;-65
2023/03/14 00:15:43;;;;;;;8.15;1.58;;;;;;;11.32;74.17;98805.75;4973626;28;20046;-66
2023/03/14 00:18:09;;;;;;;8.50;1.58;;;;;;;11.29;74.43;98801.56;4977701;28;20053;-66
2023/03/14 00:20:34;;;;;;;7.85;1.75;;;;;;;11.30;74.43;98794.66;4982348;28;20113;-65
2023/03/14 00:22:59;;;;;;;6.88;1.40;;;;;;;11.41;74.06;98778.66;4978150;28;20057;-65
2023/03/14 00:25:25;;;;;;;6.28;1.40;;;;;;;11.47;73.61;98775.84;4975712;28;20046;-65
2023/03/14 00:27:51;;;;;;;7.13;1.90;;;;;;;11.59;73.42;98791.66;4983375;28;20054;-65
2023/03/14 00:30:17;;;;;;;4.50;1.30;;;;;;;11.81;72.12;98756.13;4987123;28;20158;-64
2023/03/14 00:32:43;;;;;;;5.10;1.20;;;;;;;11.86;71.81;98761.13;4979529;28;20030;-64
2023/03/14 00:35:08;;;;;;;13.27;1.80;;;;;;;11.87;71.88;98763.63;4972034;28;21276;-65
2023/03/14 00:37:33;;;;;;;4.80;1.27;;;;;;;11.90;72.26;98770.41;4972994;28;20070;-65
2023/03/14 00:39:59;;;;;;;4.60;1.23;;;;;;;11.88;72.14;98783.44;4976326;28;20047;-65
2023/03/14 00:42:24;;;;;;;6.50;1.77;;;;;;;11.91;72.03;98777.28;4982297;28;20042;-65
2023/03/14 00:44:50;;;;;;;6.63;1.45;;;;;;;11.92;72.21;98771.22;4979085;28;20725;-65
2023/03/14 00:47:15;;;;;;;6.40;1.42;;;;;;;11.94;72.00;98763.34;5004941;28;20071;-65
2023/03/14 00:49:43;;;;;;;7.40;1.20;;;;;;;11.89;72.25;98771.34;4978389;28;20080;-65
2023/03/14 00:52:09;;;;;;;6.22;0.98;;;;;;;11.88;72.48;98778.28;4971892;28;20158;-65
2023/03/14 00:54:34;;;;;;;9.02;2.00;;;;;;;11.85;72.89;98778.41;4976795;28;21070;-65
2023/03/14 00:56:59;;;;;;;7.35;1.73;;;;;;;11.87;72.75;98793.88;4973411;28;20044;-65
2023/03/14 00:59:25;;;;;;;5.68;1.48;;;;;;;11.89;72.94;98790.31;4975433;28;20042;-65
2023/03/14 01:01:50;;;;;;;4.95;1.65;;;;;;;11.92;72.58;98801.44;4975263;28;20558;-65
2023/03/14 01:04:15;;;;;;;6.15;1.50;;;;;;;11.91;72.82;98792.81;4970422;28;20042;-65
2023/03/14 01:06:41;;;;;;;7.65;1.52;;;;;;;11.90;72.59;98801.47;4984695;28;20069;-65
2023/03/14 01:09:06;;;;;;;6.68;1.70;;;;;;;11.90;72.60;98785.94;4969341;28;20789;-65
2023/03/14 01:11:34;;;;;;;5.30;1.58;;;;;;;11.92;72.31;98785.91;4983654;28;20049;-64
2023/03/14 01:14:00;;;;;;;5.28;1.25;;;;;;;11.98;71.68;98785.63;4979795;28;20051;-65
2023/03/14 01:16:28;;;;;;;7.85;1.25;;;;;;;11.99;71.82;98788.13;4972490;28;21025;-65
2023/03/14 01:18:54;;;;;;;5.78;1.55;;;;;;;12.06;71.55;98779.19;4977145;28;20046;-65
2023/03/14 01:21:28;;;;;;;7.45;1.65;;;;;;;12.09;71.45;98783.38;4968332;28;20602;-65
2023/03/14 01:23:55;;;;;;;8.07;1.25;;;;;;;12.11;71.14;98769.44;4978397;28;20046;-65
2023/03/14 01:26:22;;;;;;;7.43;1.33;;;;;;;12.10;71.32;98769.53;4972236;28;20040;-65
2023/03/14 01:28:49;;;;;;;10.95;1.52;;;;;;;12.08;71.26;98761.81;4969505;28;20049;-67
2023/03/14 01:31:15;;;;;;;3.45;1.17;;;;;;;12.07;71.88;98775.69;4977866;28;20048;-65
2023/03/14 01:33:41;;;;;;;8.25;1.58;;;;;;;11.98;74.30;98802.00;4979050;28;20141;-66
2023/03/14 01:36:08;;;;;;;7.03;1.48;;;;;;;11.75;76.40;98815.13;4966500;28;20038;-66
2023/03/14 01:38:35;;;;;;;4.57;1.27;;;;;;;11.50;79.41;98810.19;4983341;28;20034;-64
2023/03/14 01:41:02;;;;;;;6.10;1.63;;;;;;;11.30;80.81;98808.44;4977343;28;20761;-66
2023/03/14 01:43:28;;;;;;;7.63;1.40;;;;;;;11.19;81.95;98805.44;4969546;28;20039;-66
2023/03/14 01:46:05;;;;;;;4.13;1.27;;;;;;;11.13;82.61;98804.84;4977021;28;20044;-66
2023/03/14 01:48:37;;;;;;;6.82;1.70;;;;;;;11.06;82.71;98793.09;4974651;28;20050;-66
2023/03/14 01:51:07;;;;;;;5.22;1.20;;;;;;;11.02;83.40;98791.53;4971861;28;20125;-65
2023/03/14 01:53:35;;;;;;;3.08;1.02;;;;;;;11.01;83.01;98784.69;4970866;28;20038;-66
2023/03/14 01:56:01;;;;;;;6.25;1.80;;;;;;;10.99;83.36;98789.91;4978036;28;20053;-66
2023/03/14 01:58:29;;;;;;;8.40;1.65;;;;;;;11.01;83.73;98805.38;4973775;28;20081;-66
2023/03/14 02:00:58;;;;;;;4.80;1.73;;;;;;;10.99;84.84;98822.66;4975211;28;20046;-65
2023/03/14 02:03:26;;;;;;;11.75;2.47;;;;;;;10.87;88.15;98821.44;4971845;28;20964;-66
2023/03/14 02:05:56;;;;;;;8.95;1.88;;;;;;;10.53;88.21;98819.38;4969298;28;20041;-67
2023/03/14 02:08:24;;;;;;;4.18;1.05;;;;;;;10.25;88.85;98808.41;4978691;28;20547;-66
2023/03/14 02:10:50;;;;;;;5.72;1.17;;;;;;;10.08;89.76;98792.72;4972881;28;20070;-66
2023/03/14 02:13:21;;;;;;;4.43;1.17;;;;;;;9.94;90.91;98793.22;4984800;28;20435;-67
2023/03/14 02:15:48;;;;;;;1.20;0.65;;;;;;;9.83;91.75;98789.34;4967216;28;20046;-66
2023/03/14 02:18:16;;;;;;;3.00;0.73;;;;;;;9.74;92.22;98781.94;4977301;28;20127;-66
2023/03/14 02:20:56;;;;;;;2.60;1.55;;;;;;;9.67;92.40;98794.25;4972242;28;20026;-67
2023/03/14 02:23:53;;;;;;;4.10;0.77;;;;;;;9.62;93.65;98790.97;4977096;28;20033;-67
2023/03/14 02:26:30;;;;;;;2.33;0.98;;;;;;;9.56;93.28;98792.00;4968995;28;20046;-67
2023/03/14 02:28:56;;;;;;;4.28;1.00;;;;;;;9.52;94.01;98776.72;4974431;28;20532;-66
2023/03/14 02:31:22;;;;;;;3.97;1.00;;;;;;;9.50;94.29;98778.47;4998731;28;20048;-67
2023/03/14 02:33:48;;;;;;;5.72;1.05;;;;;;;9.48;94.45;98768.25;5011173;28;20041;-67
2023/03/14 02:36:14;;;;;;;6.90;1.35;;;;;;;9.45;94.20;98759.75;4998433;28;20729;-66
2023/03/14 02:38:47;;;;;;;6.50;1.58;;;;;;;9.38;94.70;98756.56;4977878;28;20038;-66
2023/03/14 02:41:14;;;;;;;7.43;1.75;;;;;;;9.28;94.22;98760.38;4980693;28;20026;-67
2023/03/14 02:43:39;;;;;;;4.70;1.42;;;;;;;9.20;95.04;98751.22;4981123;28;20035;-66
2023/03/14 02:46:05;;;;;;;5.80;1.63;;;;;;;9.10;95.71;98748.13;4986503;28;20788;-67
2023/03/14 02:48:37;;;;;;;5.78;1.27;;;;;;;9.03;95.81;98742.34;4983525;28;20069;-66
2023/03/14 02:51:03;;;;;;;3.38;1.30;;;;;;;9.03;95.72;98728.59;4983399;28;20061;-66
2023/03/14 02:53:31;;;;;;;6.50;1.80;;;;;;;8.97;96.34;98723.66;4981919;28;20110;-66
2023/03/14 02:55:58;;;;;;;10.02;1.85;;;;;;;8.95;96.12;98723.72;4984087;28;20038;-66
2023/03/14 02:58:23;;;;;;;7.90;1.58;;;;;;;8.93;95.63;98717.75;4977107;28;20106;-66
2023/03/14 03:00:48;;;;;;;7.53;2.33;;;;;;;8.90;96.16;98711.91;4988303;28;20038;-66
2023/03/14 03:03:14;;;;;;;4.72;1.50;;;;;;;8.90;95.91;98723.03;4989149;28;20124;-67
2023/03/14 03:05:40;;;;;;;6.88;1.58;;;;;;;8.88;96.03;98713.66;4991303;28;20030;-67
2023/03/14 03:08:06;;;;;;;6.57;2.22;;;;;;;8.85;96.16;98718.91;4982760;28;20047;-66
2023/03/14 03:10:32;;;;;;;11.82;2.15;;;;;;;8.86;95.74;98711.16;5001468;28;20042;-67
2023/03/14 03:12:58;;;;;;;7.05;2.20;;;;;;;8.91;94.86;98704.09;4984961;28;20841;-67
2023/03/14 03:15:23;;;;;;;9.15;1.90;;;;;;;8.93;95.46;98698.91;4979598;28;20129;-66
2023/03/14 03:17:49;;;;;;;6.40;1.88;;;;;;;9.00;94.33;98693.47;4989002;28;20026;-66
2023/03/14 03:20:14;;;;;;;9.93;1.65;;;;;;;9.14;93.26;98695.56;4991019;28;20062;-66
2023/03/14 03:22:40;;;;;;;9.55;1.77;;;;;;;9.18;93.42;98706.59;4977839;28;20042;-67
2023/03/14 03:25:07;;;;;;;11.18;2.25;;;;;;;9.32;91.58;98702.63;4976947;28;20043;-67
2023/03/14 03:27:34;;;;;;;7.30;1.55;;;;;;;9.35;91.78;98710.25;4975698;28;20051;-67
2023/03/14 03:30:00;;;;;;;8.38;1.88;;;;;;;9.42;90.26;98705.72;4985245;28;20038;-63
2023/03/14 03:32:27;;;;;;;3.95;1.50;;;;;;;9.48;90.35;98706.34;4978700;28;20389;-62
2023/03/14 03:34:52;;;;;;;10.77;1.70;;;;;;;9.53;89.12;98704.44;5007244;28;20037;-62
2023/03/14 03:37:18;;;;;;;4.28;1.55;;;;;;;9.50;89.24;98711.44;5007386;28;20034;-62
2023/03/14 03:39:43;;;;;;;8.23;2.17;;;;;;;9.59;88.32;98714.56;5004338;28;20459;-62
2023/03/14 03:42:09;;;;;;;7.90;1.73;;;;;;;9.57;89.00;98694.84;5002763;28;20037;-62
2023/03/14 03:44:35;;;;;;;6.97;1.38;;;;;;;9.56;89.39;98696.59;5007441;28;20030;-63
2023/03/14 03:47:00;;;;;;;6.13;1.40;;;;;;;9.62;88.42;98688.66;5006944;28;20068;-62
2023/03/14 03:49:29;;;;;;;8.75;1.58;;;;;;;9.65;88.24;98691.13;4997161;28;20041;-63
2023/03/14 03:51:55;;;;;;;9.02;1.83;;;;;;;9.65;89.04;98692.84;5000088;28;20407;-62
2023/03/14 03:54:20;;;;;;;6.38;1.60;;;;;;;9.63;89.76;98699.81;5001494;28;20048;-62
2023/03/14 03:56:45;;;;;;;8.00;1.70;;;;;;;9.64;89.16;98692.00;5014733;28;20035;-62
2023/03/14 03:59:11;;;;;;;6.68;1.58;;;;;;;9.67;88.85;98698.81;5000150;28;20507;-62
2023/03/14 04:01:36;;;;;;;6.95;1.80;;;;;;;9.73;88.15;98696.00;5001952;28;20041;-62
2023/03/14 04:04:01;;;;;;;8.45;1.60;;;;;;;9.71;89.86;98694.34;4993251;28;20516;-62
2023/03/14 04:06:27;;;;;;;6.00;2.05;;;;;;;9.82;88.44;98693.06;4987143;28;20042;-62
2023/03/14 04:08:54;;;;;;;6.07;1.35;;;;;;;9.79;88.13;98685.44;4991708;28;20606;-62
2023/03/14 04:11:19;;;;;;;7.70;1.40;;;;;;;9.85;87.95;98692.91;4993793;28;20034;-61
2023/03/14 04:13:45;;;;;;;4.15;1.25;;;;;;;9.76;88.38;98695.88;5003043;28;20094;-62
2023/03/14 04:16:17;;;;;;;7.10;1.17;;;;;;;9.72;89.05;98693.47;4997826;28;20056;-62
2023/03/14 04:18:42;;;;;;;6.28;1.27;;;;;;;9.78;88.57;98696.66;5008543;28;20045;-62
2023/03/14 04:21:08;;;;;;;6.47;1.25;;;;;;;9.83;88.24;98699.03;5003535;28;20056;-62
2023/03/14 04:23:33;;;;;;;6.20;2.00;;;;;;;9.86;88.26;98694.63;4991194;28;20053;-62
2023/03/14 04:25:59;;;;;;;5.53;2.38;;;;;;;9.83;88.39;98694.72;4991559;28;20112;-62
2023/03/14 04:28:24;;;;;;;6.35;1.10;;;;;;;9.83;87.96;98687.00;4991299;28;22191;-62
2023/03/14 04:30:49;;;;;;;2.60;1.00;;;;;;;9.83;88.12;98687.00;4992705;28;20103;-62
2023/03/14 04:33:17;;;;;;;6.55;1.25;;;;;;;9.85;88.52;98685.19;5001375;28;20052;-62
2023/03/14 04:35:46;;;;;;;6.40;1.15;;;;;;;9.92;88.33;98680.63;4990415;28;20033;-63
2023/03/14 04:38:12;;;;;;;5.55;1.25;;;;;;;9.92;88.58;98681.47;4995028;28;20812;-62
2023/03/14 04:40:38;;;;;;;3.90;1.65;;;;;;;9.96;88.01;98672.72;4991717;28;20049;-62
2023/03/14 04:43:04;;;;;;;4.63;1.17;;;;;;;9.88;88.87;98679.91;4986780;28;20049;-62
2023/03/14 04:45:29;;;;;;;5.63;1.17;;;;;;;9.86;89.05;98673.97;5005481;28;20038;-62
2023/03/14 04:47:54;;;;;;;8.10;1.42;;;;;;;9.84;89.80;98670.63;4985922;28;20076;-62
2023/03/14 04:50:20;;;;;;;3.47;1.10;;;;;;;9.80;91.25;98673.38;4997378;28;20057;-62
2023/03/14 04:52:45;;;;;;;4.25;1.08;;;;;;;9.79;91.17;98672.53;4993217;28;20050;-62
2023/03/14 04:55:11;;;;;;;3.63;0.80;;;;;;;9.74;90.77;98669.28;4995872;28;20048;-62
2023/03/14 04:57:36;;;;;;;4.88;0.88;;;;;;;9.71;92.15;98666.81;4995681;28;20488;-62
2023/03/14 05:00:06;;;;;;;3.53;1.00;;;;;;;9.76;92.08;98661.50;4993739;28;20037;-62
2023/03/14 05:02:32;;;;;;;4.05;1.30;;;;;;;9.70;92.71;98657.41;4985368;28;20038;-62
2023/03/14 05:04:57;;;;;;;2.85;0.77;;;;;;;9.67;92.83;98660.94;4989193;28;20049;-62
2023/03/14 05:07:23;;;;;;;3.08;1.02;;;;;;;9.66;92.81;98655.84;4993066;28;20050;-62
2023/03/14 05:09:48;;;;;;;5.30;1.13;;;;;;;9.70;92.41;98639.38;4989697;28;20044;-62
2023/03/14 05:12:13;;;;;;;4.20;0.85;;;;;;;9.73;92.63;98638.41;4987953;28;20089;-62
2023/03/14 05:14:39;;;;;;;2.67;0.55;;;;;;;9.74;92.64;98630.59;4985599;28;20033;-62
2023/03/14 05:17:04;;;;;;;1.27;0.55;;;;;;;9.73;93.14;98628.09;4992470;28;20045;-62
2023/03/14 05:19:30;;;;;;;1.67;0.50;;;;;;;9.76;91.89;98617.66;4988002;28;20543;-62
2023/03/14 05:21:55;;;;;;;3.65;0.93;;;;;;;9.77;91.52;98616.72;4997170;28;20704;-61
2023/03/14 05:24:21;;;;;;;0.50;0.45;;;;;;;9.76;91.88;98613.34;4995665;28;20034;-62
2023/03/14 05:26:46;;;;;;;2.55;0.77;;;;;;;9.79;91.41;98610.63;4993632;28;20032;-62
2023/03/14 05:29:12;;;;;;;0.77;0.40;;;;;;;9.78;91.05;98606.34;4995405;28;20045;-62
2023/03/14 05:31:37;;;;;;;1.00;0.50;;;;;;;9.73;91.39;98604.88;4991051;28;20030;-61
2023/03/14 05:34:02;;;;;;;1.35;0.50;;;;;;;9.68;91.11;98610.19;4992549;28;20046;-62
2023/03/14 05:36:28;;;;;;;1.17;0.63;;;;;;;9.68;90.31;98608.44;4987414;28;20034;-62
2023/03/14 05:38:53;;;;;;;0.82;0.50;;;;;;;9.71;90.41;98611.81;4987942;28;20050;-62
2023/03/14 05:41:19;;;;;;;6.90;1.65;;;;;;;9.70;89.74;98608.41;4988699;28;20181;-62
2023/03/14 05:43:44;;;;;;;1.23;0.40;;;;;;;9.70;90.35;98612.72;4995368;28;20499;-62
2023/03/14 05:46:10;;;;;;;1.17;0.40;;;;;;;9.68;91.00;98617.94;4991731;28;20070;-63
2023/03/14 05:48:35;;;;;;;0.85;0.50;;;;;;;9.72;89.71;98608.34;4991812;28;20419;-62
2023/03/14 05:51:00;;;;;;;2.72;0.30;;;;;;;9.74;89.42;98615.09;4989324;28;20038;-61
2023/03/14 05:53:26;;;;;;;2.03;0.50;;;;;;;9.76;89.60;98618.50;4996498;28;20527;-62
2023/03/14 05:55:55;;;;;;;2.17;0.30;;;;;;;9.79;89.61;98618.38;5003519;28;20107;-62
2023/03/14 05:58:20;;;;;;;2.80;1.00;;;;;;;9.83;88.53;98604.44;4991626;28;20119;-62
2023/03/14 06:00:46;;;;;;;0.47;0.40;;;;;;;9.82;89.33;98613.09;4987761;28;20073;-67
2023/03/14 06:03:12;;;;;;;1.45;0.43;;;;;;;9.80;88.72;98608.88;4987484;28;20046;-67
2023/03/14 06:05:37;;;;;;;0.35;0.30;;;;;;;9.82;89.76;98615.66;4990253;28;20034;-67
2023/03/14 06:08:03;;;;;;;0.93;0.40;;;;;;;9.85;89.95;98612.13;4992695;28;20473;-66
2023/03/14 06:10:28;;;;;;;0.63;0.40;;;;;;;9.87;89.79;98602.56;4998665;28;20411;-66
2023/03/14 06:12:54;;;;;;;0.77;0.40;;;;;;;9.86;90.19;98599.16;4989708;28;20045;-67
2023/03/14 06:15:19;;;;;;;0.40;0.30;;;;;;;9.83;89.93;98601.84;4991557;28;20054;-67
2023/03/14 06:17:44;;;;;;;0.70;0.30;;;;;;;9.85;90.90;98597.44;4992230;28;20026;-65
2023/03/14 06:20:10;;;;;;;0.93;0.40;;;;;;;9.86;89.47;98596.56;4994932;28;20770;-66
2023/03/14 06:22:36;;;;;;;0.30;0.30;;;;;;;9.85;89.86;98589.72;4998248;28;20034;-67
2023/03/14 06:25:01;;;;;;;0.57;0.30;;;;;;;9.84;89.59;98594.94;4996741;28;20038;-61
2023/03/14 06:27:29;;;;;;;0.75;0.50;;;;;;;9.86;89.98;98595.72;5001975;28;20132;-62
2023/03/14 06:29:54;;;;;;;0.90;0.50;;;;;;;9.83;90.77;98586.38;4993068;28;20040;-62
2023/03/14 06:32:20;;;;;;;1.63;0.50;;;;;;;9.80;89.87;98588.22;5000940;28;20067;-62
2023/03/14 06:34:45;;;;;;;1.45;0.30;;;;;;;9.84;89.57;98590.63;4996778;28;20103;-62
2023/03/14 06:37:11;;;;;;;0.40;0.40;;;;;;;9.89;89.68;98590.44;4993565;28;20164;-62
2023/03/14 06:39:38;;;;;;;0.93;0.40;;;;;;;9.90;89.94;98586.97;4993888;28;20153;-62
2023/03/14 06:42:04;;;;;;;0.55;0.55;;;;;;;9.95;89.70;98583.28;4995467;28;20049;-61
2023/03/14 06:44:30;;;;;;;0.30;0.30;;;;;;;9.99;89.79;98587.44;4990521;28;20114;-61
2023/03/14 06:46:55;;;;;;;0.52;0.30;;;;;;;10.02;89.47;98583.88;4993577;28;20042;-61
2023/03/14 06:49:21;;;;;;;0.88;0.30;;;;;;;10.04;88.40;98592.41;4993608;28;20029;-62
2023/03/14 06:51:46;;;;;;;0.30;0.30;;;;;;;10.01;88.76;98595.94;4988459;28;20049;-61
2023/03/14 06:54:12;;;;;;;0.60;0.40;;;;;;;10.06;88.69;98598.38;4997773;28;20030;-61
2023/03/14 06:56:37;;;;;;;0.93;0.40;;;;;;;10.20;87.79;98598.63;5013731;28;20049;-62
2023/03/14 06:59:03;;;;;;;0.70;0.30;;;;;;;10.37;87.49;98596.19;4998452;28;20065;-61
2023/03/14 07:01:30;;;;;;;1.50;0.50;;;;;;;10.50;86.65;98592.19;4989881;28;20050;-61
2023/03/14 07:03:55;;;;;;;0.30;0.30;;;;;;;10.58;86.02;98597.00;4995996;28;20042;-61
2023/03/14 07:06:21;;;;;;;0.65;0.38;;;;;;;10.71;85.95;98595.59;4985939;28;20034;-61
2023/03/14 07:08:47;;;;;;;0.40;0.30;;;;;;;10.82;85.32;98595.94;4995715;28;20551;-62
2023/03/14 07:11:12;;;;;;;1.45;0.20;;;;;;;10.81;84.87;98599.44;4999520;28;20404;-61
2023/03/14 07:13:39;;;;;;;0.20;0.20;;;;;;;10.73;84.59;98604.09;4993472;28;20420;-62
2023/03/14 07:16:05;;;;;;;1.13;0.30;;;;;;;10.66;84.21;98605.25;4992569;28;20044;-61
2023/03/14 07:18:31;;;;;;;0.47;0.30;;;;;;;10.67;84.88;98599.19;4992021;28;20111;-61
2023/03/14 07:20:56;;;;;;;0.43;0.20;;;;;;;10.72;84.22;98605.84;4987482;28;20145;-62
2023/03/14 07:23:22;;;;;;;0.55;0.20;;;;;;;10.78;83.89;98600.41;4995467;28;20538;-62
2023/03/14 07:25:47;;;;;;;1.17;0.22;;;;;;;10.87;83.56;98606.91;4989407;28;20452;-62
2023/03/14 07:28:13;;;;;;;0.32;0.28;;;;;;;10.94;84.19;98612.66;4992609;28;20042;-63
2023/03/14 07:30:38;;;;;;;0.63;0.30;;;;;;;11.04;84.09;98619.13;4994961;28;20042;-62
2023/03/14 07:33:03;;;;;;;1.38;0.40;;;;;;;11.19;82.60;98615.81;4998712;28;20908;-62
2023/03/14 07:35:29;;;;;;;0.30;0.30;;;;;;;11.34;81.73;98615.97;4996466;28;20107;-62
2023/03/14 07:37:54;;;;;;;0.30;0.30;;;;;;;11.47;82.38;98620.63;4984988;28;20041;-62
2023/03/14 07:40:20;;;;;;;1.08;0.25;;;;;;;11.49;82.05;98623.97;4988953;28;20038;-62
2023/03/14 07:42:46;;;;;;;0.17;0.10;;;;;;;11.43;82.41;98629.38;4989318;28;20033;-63
2023/03/14 07:45:12;;;;;;;0.20;0.20;;;;;;;11.49;82.99;98632.56;4987211;28;20034;-63
2023/03/14 07:47:37;;;;;;;0.50;0.30;;;;;;;11.57;82.63;98637.41;5001783;28;20060;-63
2023/03/14 07:50:04;;;;;;;0.10;0.10;;;;;;;11.76;81.44;98639.06;4998591;28;20146;-63
2023/03/14 07:52:29;;;;;;;0.20;0.20;;;;;;;11.94;81.32;98639.94;4992468;28;20125;-63
2023/03/14 07:54:55;;;;;;;0.22;0.22;;;;;;;12.10;81.27;98630.53;4998895;28;20041;-63
2023/03/14 07:57:20;;;;;;;0.65;0.25;;;;;;;12.29;79.99;98636.47;4989038;28;20130;-63
2023/03/14 07:59:46;;;;;;;0.40;0.30;;;;;;;12.53;78.63;98628.38;4994952;28;20535;-62
2023/03/14 08:02:12;;;;;;;0.57;0.20;;;;;;;12.56;77.59;98613.53;4989010;28;20034;-63
2023/03/14 08:04:39;;;;;;;0.20;0.20;;;;;;;12.62;77.89;98630.53;4988188;28;20518;-63
2023/03/14 08:07:04;;;;;;;2.50;0.30;;;;;;;12.70;77.32;98623.22;4987959;28;20463;-63
2023/03/14 08:09:30;;;;;;;0.22;0.13;;;;;;;12.80;76.86;98619.22;4991460;28;20034;-63
2023/03/14 08:11:55;;;;;;;1.25;0.20;;;;;;;12.91;76.99;98614.34;4995674;28;20107;-64
2023/03/14 08:14:23;;;;;;;0.35;0.30;;;;;;;12.96;74.98;98605.41;5002672;28;20159;-63
2023/03/14 08:16:49;;;;;;;0.20;0.20;;;;;;;12.97;75.49;98614.84;4990097;28;20140;-64
2023/03/14 08:19:14;;;;;;;0.25;0.10;;;;;;;13.10;75.49;98609.88;4998213;28;20033;-64
2023/03/14 08:21:40;;;;;;;0.10;0.10;;;;;;;13.27;74.93;98612.41;4988679;28;20351;-63
2023/03/14 08:24:05;;;;;;;0.20;0.15;;;;;;;13.38;73.27;98606.66;4997821;28;20785;-64
2023/03/14 08:26:31;;;;;;;0.10;0.10;;;;;;;13.43;72.55;98604.66;4990992;28;20040;-63
2023/03/14 08:28:56;;;;;;;0.10;0.10;;;;;;;13.55;73.15;98614.38;4991603;28;20119;-64
2023/03/14 08:31:22;;;;;;;0.20;0.20;;;;;;;13.56;72.12;98613.47;4994220;28;20042;-64
2023/03/14 08:33:47;;;;;;;2.55;0.63;;;;;;;13.48;70.62;98600.88;4991129;28;20095;-64
2023/03/14 08:36:12;;;;;;;1.13;0.30;;;;;;;13.49;72.64;98638.91;4993648;28;20703;-63
2023/03/14 08:38:38;;;;;;;0.20;0.20;;;;;;;13.47;71.16;98619.94;4999161;28;20042;-67
2023/03/14 08:41:04;;;;;;;0.22;0.15;;;;;;;13.55;71.59;98619.56;4996326;28;20034;-63
2023/03/14 08:43:30;;;;;;;0.20;0.20;;;;;;;13.75;70.91;98610.66;4994664;28;20042;-64
2023/03/14 08:46:00;;;;;;;0.20;0.20;;;;;;;13.74;71.53;98616.78;4993158;28;20038;-65
2023/03/14 08:48:26;;;;;;;0.20;0.20;;;;;;;13.72;70.95;98618.63;4997742;28;20046;-65
2023/03/14 08:50:52;;;;;;;0.32;0.22;;;;;;;13.56;70.91;98635.03;4992284;28;20508;-64
2023/03/14 08:53:18;;;;;;;0.20;0.20;;;;;;;13.61;70.99;98627.00;4996035;28;20045;-63
2023/03/14 08:55:43;;;;;;;0.20;0.20;;;;;;;13.60;71.27;98621.88;4993425;28;20049;-63
2023/03/14 08:58:09;;;;;;;0.10;0.10;;;;;;;13.45;71.93;98639.97;5000382;28;20034;-63
2023/03/14 09:00:34;;;;;;;1.05;0.20;;;;;;;13.35;72.72;98656.13;4996957;28;20030;-63
2023/03/14 09:03:00;;;;;;;0.55;0.30;;;;;;;13.28;73.06;98653.00;4997861;28;20475;-63
2023/03/14 09:05:25;;;;;;;0.80;0.20;;;;;;;13.26;74.24;98667.84;4995977;28;20041;-63
2023/03/14 09:07:50;;;;;;;0.30;0.10;;;;;;;13.20;75.95;98690.66;4990353;28;20031;-64
2023/03/14 09:10:16;;;;;;;1.13;0.20;;;;;;;12.97;77.38;98691.78;4995568;28;20777;-64
2023/03/14 09:12:41;;;;;;;0.28;0.20;;;;;;;12.56;80.23;98696.47;4994040;28;21366;-63
2023/03/14 09:15:08;;;;;;;0.57;0.30;;;;;;;12.26;81.65;98697.94;5003148;28;20514;-64
2023/03/14 09:17:33;;;;;;;0.20;0.20;;;;;;;12.02;83.77;98718.06;4988901;28;20103;-64
2023/03/14 09:19:58;;;;;;;0.38;0.30;;;;;;;11.87;85.03;98724.00;4987364;28;20394;-63
2023/03/14 09:22:24;;;;;;;2.28;0.20;;;;;;;11.87;86.31;98721.41;4984880;28;20103;-64
2023/03/14 09:24:49;;;;;;;0.40;0.30;;;;;;;11.87;87.29;98721.41;4985142;28;20044;-63
2023/03/14 09:27:15;;;;;;;1.67;0.20;;;;;;;11.94;87.46;98720.19;4990506;28;20038;-63
2023/03/14 09:29:40;;;;;;;0.52;0.25;;;;;;;12.03;87.41;98718.91;4997222;28;20034;-64
2023/03/14 09:32:06;;;;;;;0.43;0.20;;;;;;;12.02;87.29;98725.03;5006786;28;20482;-63
2023/03/14 09:34:32;;;;;;;9.52;2.25;;;;;;;12.02;87.92;98725.84;5004327;28;20856;-63
2023/03/14 09:36:57;;;;;;;0.25;0.20;;;;;;;12.07;87.92;98726.47;4999318;28;20372;-63
2023/03/14 09:39:23;;;;;;;1.00;0.47;;;;;;;12.09;88.62;98737.59;4999112;28;20045;-63
2023/03/14 09:41:55;;;;;;;1.95;0.60;;;;;;;12.02;87.98;98746.56;4990570;28;20029;-64
2023/03/14 09:44:28;;;;;;;0.25;0.22;;;;;;;11.98;88.16;98746.78;4990557;28;20026;-64
2023/03/14 09:46:58;;;;;;;1.35;0.45;;;;;;;11.93;89.41;98756.53;4993649;28;20042;-64
2023/03/14 09:49:30;;;;;;;0.50;0.30;;;;;;;11.87;89.80;98752.47;4989924;28;20038;-63
2023/03/14 09:51:59;;;;;;;1.65;0.40;;;;;;;11.79;90.01;98785.59;4990885;28;20633;-63
2023/03/14 09:54:34;;;;;;;1.27;0.38;;;;;;;11.60;89.38;98784.75;4996547;28;20157;-64
2023/03/14 09:56:59;;;;;;;;;;;;;;;10.42;82.05;98867.13;4998419;28;20042;-64
2023/03/14 09:59:28;;;;;;;1.13;0.40;;;;;;;9.80;84.49;98893.53;4998683;28;19952;-63
2023/03/14 10:01:58;;;;;;;0.70;0.70;;;;;;;9.50;85.43;98905.69;4999478;28;20033;-64
2023/03/14 10:04:23;;;;;;;2.05;0.30;;;;;;;9.32;86.54;98924.34;4997755;28;20125;-63
2023/03/14 10:06:49;;;;;;;1.23;0.80;;;;;;;9.17;87.28;98937.72;4987704;28;20052;-63
2023/03/14 10:09:25;;;;;;;0.93;0.40;;;;;;;9.04;88.12;98957.91;4993129;28;20038;-64
2023/03/14 10:11:55;;;;;;;1.08;0.43;;;;;;;8.97;90.00;98958.97;4991867;28;20600;-64
2023/03/14 10:14:37;;;;;;;1.23;0.50;;;;;;;8.98;88.96;98965.00;4994260;28;20030;-62
2023/03/14 10:17:12;;;;;;;2.78;0.70;;;;;;;8.93;90.49;98997.78;4995472;28;20046;-63
2023/03/14 10:20:03;;;;;;;1.45;0.70;;;;;;;8.87;91.13;99005.69;5001471;28;20049;-64
2023/03/14 10:22:31;;;;;;;4.47;0.63;;;;;;;8.77;91.96;99002.53;4998879;28;20041;-62
2023/03/14 10:25:01;;;;;;;1.25;0.90;;;;;;;8.72;92.28;99024.19;5008201;28;20099;-63
2023/03/14 10:27:32;;;;;;;0.95;0.90;;;;;;;8.72;91.54;99024.19;4990041;28;20074;-63
2023/03/14 10:30:02;;;;;;;2.13;1.00;;;;;;;8.66;91.68;99039.81;4998457;28;20037;-63
2023/03/14 10:32:40;;;;;;;2.47;1.10;;;;;;;8.75;91.58;99053.28;4993154;28;20052;-62
2023/03/14 10:35:15;;;;;;;2.22;1.63;;;;;;;8.82;91.94;99066.78;4990020;28;20085;-62
2023/03/14 10:38:01;;;;;;;2.10;1.58;;;;;;;8.77;91.89;99076.41;4996649;28;20042;-63
2023/03/14 10:40:31;;;;;;;3.13;1.27;;;;;;;8.66;91.32;99084.44;4993502;28;20431;-62
2023/03/14 10:43:03;;;;;;;1.40;1.00;;;;;;;8.53;92.14;99103.66;4995127;28;20042;-62
2023/03/14 10:45:45;;;;;;;4.22;1.00;;;;;;;8.40;93.69;99100.56;4995555;28;20037;-62
2023/03/14 10:48:31;;;;;;;1.55;1.25;;;;;;;8.41;94.28;99099.69;4997549;28;20042;-63
2023/03/14 10:51:11;;;;;;;2.28;1.10;;;;;;;8.42;92.25;99100.53;4990340;28;20041;-62
2023/03/14 10:53:47;;;;;;;0.82;0.80;;;;;;;8.46;91.03;99117.56;4995153;28;20113;-62
2023/03/14 10:56:17;;;;;;;2.03;1.20;;;;;;;8.49;91.24;99112.34;4997340;28;20033;-62
2023/03/14 10:58:44;;;;;;;1.63;1.30;;;;;;;8.54;90.46;99113.91;4991901;28;20038;-62
2023/03/14 11:01:52;;;;;;;1.30;0.88;;;;;;;8.67;89.97;99127.31;5010923;28;20125;-63
2023/03/14 11:04:39;;;;;;;0.88;0.70;;;;;;;8.68;89.31;99131.59;4993315;28;20044;-63
2023/03/14 11:07:26;;;;;;;1.45;1.13;;;;;;;8.71;89.66;99141.81;4994531;28;20050;-63
2023/03/14 11:10:19;;;;;;;1.05;0.80;;;;;;;8.66;89.19;99148.81;4993942;28;20046;-63
2023/03/14 11:13:06;;;;;;;1.73;0.85;;;;;;;8.67;90.10;99162.53;5017488;28;20037;-63
2023/03/14 11:15:54;;;;;;;1.02;0.70;;;;;;;8.70;88.85;99165.88;4991599;28;20137;-64
2023/03/14 11:18:44;;;;;;;4.15;0.90;;;;;;;8.79;87.09;99172.50;4991045;28;20038;-65
2023/03/14 11:21:45;;;;;;;3.70;1.25;;;;;;;8.94;87.61;99187.56;4995966;28;20399;-64
2023/03/14 11:24:33;;;;;;;2.22;1.05;;;;;;;9.16;87.07;99180.09;5001337;28;20057;-63
2023/03/14 11:27:18;;;;;;;2.28;0.85;;;;;;;9.37;85.35;99182.91;4997964;28;20117;-64
2023/03/14 11:29:58;;;;;;;5.50;2.00;;;;;;;9.71;85.00;99179.34;4995146;28;20022;-64
2023/03/14 11:32:56;;;;;;;3.28;1.60;;;;;;;10.08;82.65;99172.19;4999640;28;20120;-64
2023/03/14 11:35:42;;;;;;;1.98;1.10;;;;;;;10.44;82.55;99178.75;4989324;28;20190;-68
2023/03/14 11:38:29;;;;;;;2.22;1.38;;;;;;;10.62;80.15;99175.50;4993478;28;20030;-67
2023/03/14 11:40:57;;;;;;;2.60;1.48;;;;;;;10.58;76.99;99165.34;4995363;28;20096;-67